createdAt,value
2023-05-19T00:05:30.806Z,80.51
2023-05-19T00:20:37.991Z,85.11
2023-05-19T00:35:43.544Z,85.77
2023-05-19T00:50:49.429Z,88.40
2023-05-19T01:05:55.112Z,89.21
2023-05-19T01:21:08.344Z,91.38
2023-05-19T01:36:15.410Z,91.87
2023-05-19T01:51:21.036Z,92.88
2023-05-19T02:06:35.916Z,93.84
2023-05-19T02:21:41.508Z,93.69
2023-05-19T02:36:50.010Z,94.49
2023-05-19T02:51:55.641Z,95.00
2023-05-19T03:07:02.452Z,95.36
2023-05-19T03:22:08.309Z,95.10
2023-05-19T03:37:14.094Z,95.32
2023-05-19T03:52:19.692Z,94.86
2023-05-19T04:07:25.399Z,95.29
2023-05-19T04:22:31.266Z,95.41
2023-05-19T04:37:38.654Z,94.75
2023-05-19T04:52:45.811Z,94.70
2023-05-19T05:07:54.582Z,94.54
2023-05-19T05:23:01.383Z,94.34
2023-05-19T05:38:07.120Z,93.48
2023-05-19T05:53:19.344Z,93.68
2023-05-19T06:08:25.085Z,93.04
2023-05-19T06:23:31.830Z,92.32
2023-05-19T06:38:37.666Z,90.13
2023-05-19T06:53:43.254Z,85.61
2023-05-19T07:08:48.949Z,83.84
2023-05-19T07:23:54.850Z,83.84
2023-05-19T07:39:00.660Z,79.39
2023-05-19T07:54:06.357Z,78.69
2023-05-19T08:09:12.316Z,74.76
2023-05-19T08:24:17.997Z,74.33
2023-05-19T08:39:27.192Z,72.45
2023-05-19T08:54:38.584Z,72.53
2023-05-19T09:09:44.380Z,74.54
2023-05-19T09:24:50.880Z,74.79
2023-05-19T09:39:56.830Z,73.28
2023-05-19T09:55:03.972Z,69.20
2023-05-19T10:10:13.374Z,72.55
2023-05-19T10:25:20.331Z,74.35
2023-05-19T10:40:30.085Z,73.42
2023-05-19T10:55:53.573Z,72.22
2023-05-19T11:11:14.368Z,74.76
2023-05-19T11:26:43.720Z,74.76
2023-05-19T11:41:49.443Z,74.45
2023-05-19T11:56:55.130Z,75.19
2023-05-19T12:12:00.919Z,74.82
2023-05-19T12:27:14.051Z,76.68
2023-05-19T12:42:19.870Z,77.02
2023-05-19T12:57:25.352Z,77.28
2023-05-19T13:12:31.582Z,76.91
2023-05-19T13:27:37.002Z,77.05
2023-05-19T13:42:43.036Z,77.04
2023-05-19T13:57:48.756Z,76.73
2023-05-19T14:13:18.268Z,79.06
2023-05-19T14:28:19.998Z,78.82
2023-05-19T14:43:26.041Z,79.12
2023-05-19T14:58:31.950Z,77.86
2023-05-19T15:13:37.558Z,78.98
2023-05-19T15:28:43.304Z,80.07
2023-05-19T15:43:49.330Z,79.98
2023-05-19T15:58:54.795Z,80.00
2023-05-19T16:14:00.530Z,80.87
2023-05-19T16:29:06.232Z,81.29
2023-05-19T16:44:14.685Z,81.43
2023-05-19T16:59:20.383Z,80.66
2023-05-19T17:14:26.050Z,80.22
2023-05-19T17:29:31.692Z,80.24
2023-05-19T17:44:37.439Z,81.36
2023-05-19T17:59:44.018Z,80.57
2023-05-19T18:14:49.451Z,80.70
2023-05-19T18:29:55.131Z,80.40
2023-05-19T18:45:00.773Z,80.73
2023-05-19T19:00:07.356Z,80.86
2023-05-19T19:15:13.864Z,80.38
2023-05-19T19:30:19.798Z,80.95
2023-05-19T19:45:25.855Z,81.25
2023-05-19T20:00:33.094Z,82.17
2023-05-19T20:15:38.816Z,81.45
2023-05-19T20:30:44.391Z,82.98
2023-05-19T20:45:50.026Z,81.69
2023-05-19T21:00:58.136Z,82.07
2023-05-19T21:16:03.815Z,82.36
2023-05-19T21:31:09.362Z,82.57
2023-05-19T21:46:14.933Z,83.26
2023-05-19T22:01:20.859Z,82.74
2023-05-19T22:16:26.465Z,89.88
2023-05-19T22:31:32.759Z,91.69
2023-05-19T22:46:38.468Z,92.21
2023-05-19T23:01:44.164Z,92.82
2023-05-19T23:16:50.121Z,93.28
2023-05-19T23:31:56.065Z,93.78
2023-05-19T23:47:01.834Z,93.02
